createdAt,value
2024-04-12T00:02:12.425Z,12.90
2024-04-12T00:04:41.186Z,13.00
2024-04-12T00:07:14.312Z,16.70
2024-04-12T00:09:41.834Z,15.30
2024-04-12T00:12:12.573Z,12.30
2024-04-12T00:14:44.379Z,13.50
2024-04-12T00:17:16.360Z,17.70
2024-04-12T00:19:46.116Z,15.90
2024-04-12T00:22:14.867Z,15.30
2024-04-12T00:24:43.455Z,13.40
2024-04-12T00:27:15.833Z,11.60
2024-04-12T00:29:47.610Z,20.30
2024-04-12T00:32:17.987Z,13.30
2024-04-12T00:34:48.045Z,14.70
2024-04-12T00:37:16.840Z,15.00
2024-04-12T00:39:51.223Z,13.40
2024-04-12T00:42:27.511Z,11.30
2024-04-12T00:44:58.442Z,10.50
2024-04-12T00:47:28.309Z,16.10
2024-04-12T00:50:00.700Z,14.60
2024-04-12T00:52:33.952Z,15.20
2024-04-12T00:57:41.106Z,18.10
2024-04-12T01:00:20.039Z,10.90
2024-04-12T01:02:49.148Z,14.20
2024-04-12T01:05:19.352Z,16.50
2024-04-12T01:07:52.227Z,12.90
2024-04-12T01:10:31.382Z,19.10
2024-04-12T01:13:02.833Z,33.60
2024-04-12T01:15:36.954Z,32.50
2024-04-12T01:18:12.368Z,32.40
2024-04-12T01:20:42.040Z,28.40
2024-04-12T01:23:10.757Z,22.00
2024-04-12T01:25:39.343Z,26.40
2024-04-12T01:28:09.880Z,18.50
2024-04-12T01:30:40.647Z,22.80
2024-04-12T01:33:09.625Z,21.00
2024-04-12T01:35:37.523Z,25.40
2024-04-12T01:38:17.275Z,24.70
2024-04-12T01:40:57.198Z,23.80
2024-04-12T01:43:27.446Z,26.00
2024-04-12T01:45:55.557Z,27.30
2024-04-12T01:48:23.833Z,22.20
2024-04-12T01:50:51.896Z,19.80
2024-04-12T01:53:22.355Z,27.40
2024-04-12T01:55:51.175Z,24.00
2024-04-12T01:58:24.603Z,23.00
2024-04-12T02:00:52.660Z,34.20
2024-04-12T02:05:50.566Z,19.40
2024-04-12T02:08:19.985Z,24.00
2024-04-12T02:10:54.195Z,28.60
2024-04-12T02:13:24.448Z,25.70
2024-04-12T02:15:55.054Z,18.40
2024-04-12T02:18:26.287Z,24.70
2024-04-12T02:20:55.622Z,17.80
2024-04-12T02:23:23.960Z,18.00
2024-04-12T02:25:52.228Z,23.20
2024-04-12T02:28:20.422Z,22.40
2024-04-12T02:30:58.157Z,18.20
2024-04-12T02:33:30.644Z,17.40
2024-04-12T02:36:12.694Z,15.80
2024-04-12T02:38:42.108Z,18.10
2024-04-12T02:41:14.671Z,19.10
2024-04-12T02:43:54.407Z,14.20
2024-04-12T02:46:24.374Z,12.70
2024-04-12T02:48:52.687Z,16.20
2024-04-12T02:51:22.788Z,18.90
2024-04-12T02:53:51.567Z,15.30
2024-04-12T02:56:24.617Z,15.50
2024-04-12T02:58:53.424Z,18.00
2024-04-12T03:01:26.611Z,15.70
2024-04-12T03:04:02.483Z,19.50
2024-04-12T03:06:34.146Z,16.10
2024-04-12T03:09:03.275Z,15.30
2024-04-12T03:11:35.193Z,19.20
2024-04-12T03:14:10.724Z,16.00
2024-04-12T03:16:47.127Z,14.30
2024-04-12T03:19:15.792Z,12.20
2024-04-12T03:21:51.055Z,13.80
2024-04-12T03:24:19.357Z,13.90
2024-04-12T03:26:48.345Z,19.70
2024-04-12T03:29:18.178Z,15.20
2024-04-12T03:31:48.705Z,15.30
2024-04-12T03:34:16.787Z,16.10
2024-04-12T03:36:45.885Z,11.40
2024-04-12T03:39:40.892Z,14.30
2024-04-12T03:42:13.002Z,14.10
2024-04-12T03:44:44.388Z,15.90
2024-04-12T03:47:14.230Z,15.40
2024-04-12T03:49:44.143Z,13.00
2024-04-12T03:52:20.185Z,12.20
2024-04-12T03:54:48.822Z,13.40
2024-04-12T03:57:18.507Z,17.00
2024-04-12T03:59:47.101Z,12.20
2024-04-12T04:02:18.992Z,16.90
2024-04-12T04:04:48.038Z,17.80
2024-04-12T04:07:17.654Z,13.70
2024-04-12T04:09:46.732Z,16.40
2024-04-12T04:12:18.536Z,16.40
2024-04-12T04:14:52.263Z,16.00
2024-04-12T04:17:29.830Z,16.30
2024-04-12T04:19:58.000Z,13.30
2024-04-12T04:22:43.033Z,14.40
2024-04-12T04:25:11.726Z,16.30
2024-04-12T04:27:39.896Z,15.20
2024-04-12T04:30:11.632Z,15.00
2024-04-12T04:32:39.456Z,17.10
2024-04-12T04:35:09.538Z,17.60
2024-04-12T04:37:41.550Z,15.40
2024-04-12T04:40:39.206Z,22.00
2024-04-12T04:43:08.513Z,19.80
2024-04-12T04:45:35.765Z,17.70
2024-04-12T04:48:03.856Z,17.80
2024-04-12T04:50:31.999Z,17.50
2024-04-12T04:53:04.008Z,18.50
2024-04-12T04:55:32.667Z,23.20
2024-04-12T04:58:01.679Z,19.30
2024-04-12T05:00:41.295Z,20.60
2024-04-12T05:03:09.350Z,21.10
2024-04-12T05:05:40.350Z,24.00
2024-04-12T05:08:09.382Z,20.30
2024-04-12T05:10:37.380Z,22.60
2024-04-12T05:13:06.878Z,21.20
2024-04-12T05:15:38.528Z,19.20
2024-04-12T05:18:07.719Z,16.70
2024-04-12T05:20:42.497Z,15.90
2024-04-12T05:23:13.172Z,22.30
2024-04-12T05:26:05.982Z,18.50
2024-04-12T05:28:34.468Z,16.50
2024-04-12T05:31:03.222Z,17.10
2024-04-12T05:33:35.172Z,18.90
2024-04-12T05:36:11.731Z,23.00
2024-04-12T05:38:41.535Z,18.80
2024-04-12T05:41:11.048Z,15.30
2024-04-12T05:43:39.638Z,17.30
2024-04-12T05:46:11.281Z,13.80
2024-04-12T05:48:40.648Z,20.20
2024-04-12T05:51:09.885Z,19.40
2024-04-12T05:53:42.604Z,18.80
2024-04-12T05:56:27.527Z,15.90
2024-04-12T05:58:58.020Z,18.50
2024-04-12T06:01:34.246Z,14.80
2024-04-12T06:04:07.718Z,21.90
2024-04-12T06:06:44.261Z,18.50
2024-04-12T06:09:22.076Z,18.40
2024-04-12T06:11:54.724Z,17.10
2024-04-12T06:14:24.676Z,28.80
2024-04-12T06:16:57.268Z,18.00
2024-04-12T06:19:25.816Z,18.20
2024-04-12T06:21:57.885Z,13.60
2024-04-12T06:24:30.002Z,16.80
2024-04-12T06:26:59.156Z,18.30
2024-04-12T06:29:38.125Z,21.10
2024-04-12T06:32:09.769Z,14.20
2024-04-12T06:34:44.790Z,23.30
2024-04-12T06:37:16.474Z,16.70
2024-04-12T06:39:45.831Z,19.40
2024-04-12T06:42:18.640Z,17.70
2024-04-12T06:44:49.974Z,16.00
2024-04-12T06:47:20.612Z,12.00
2024-04-12T06:49:51.255Z,11.80
2024-04-12T06:52:22.862Z,21.10
2024-04-12T06:54:52.679Z,21.20
2024-04-12T06:57:22.596Z,12.70
2024-04-12T06:59:54.158Z,25.20
2024-04-12T07:02:25.249Z,16.60
2024-04-12T07:05:00.931Z,11.40
2024-04-12T07:07:30.542Z,14.10
2024-04-12T07:10:00.904Z,22.80
2024-04-12T07:12:33.432Z,13.70
2024-04-12T07:15:10.504Z,12.10
2024-04-12T07:17:41.102Z,15.10
2024-04-12T07:20:16.106Z,12.50
2024-04-12T07:22:45.687Z,10.90
2024-04-12T07:25:16.210Z,11.20
2024-04-12T07:27:48.157Z,8.50
2024-04-12T07:30:18.378Z,13.00
2024-04-12T07:32:52.146Z,14.40
2024-04-12T07:35:25.752Z,13.40
2024-04-12T07:38:03.118Z,18.10
2024-04-12T07:40:35.163Z,17.20
2024-04-12T07:43:10.792Z,13.00
2024-04-12T07:45:41.202Z,11.80
2024-04-12T07:48:22.057Z,9.00
2024-04-12T07:50:54.741Z,12.80
2024-04-12T07:53:27.141Z,13.30
2024-04-12T07:56:01.294Z,13.70
2024-04-12T07:58:36.825Z,11.80
2024-04-12T08:01:11.044Z,11.70
2024-04-12T08:03:41.934Z,11.00
2024-04-12T08:06:38.547Z,14.30
2024-04-12T08:09:26.814Z,11.30
2024-04-12T08:12:02.427Z,10.50
2024-04-12T08:14:30.272Z,14.00
2024-04-12T08:17:01.767Z,15.60
2024-04-12T08:19:39.097Z,13.50
2024-04-12T08:22:08.575Z,13.10
2024-04-12T08:24:42.629Z,11.00
2024-04-12T08:27:12.557Z,11.10
2024-04-12T08:29:48.058Z,10.00
2024-04-12T08:32:28.229Z,11.70
2024-04-12T08:34:58.613Z,11.10
2024-04-12T08:37:37.747Z,9.00
2024-04-12T08:40:11.245Z,11.60
2024-04-12T08:42:41.268Z,12.20
2024-04-12T08:45:20.688Z,13.10
2024-04-12T08:48:13.863Z,9.80
2024-04-12T08:50:49.066Z,9.50
2024-04-12T08:53:29.921Z,14.20
2024-04-12T08:56:02.241Z,14.10
2024-04-12T08:58:32.705Z,12.50
2024-04-12T09:01:02.048Z,20.80
2024-04-12T09:03:36.256Z,14.60
2024-04-12T09:06:06.036Z,10.60
2024-04-12T09:08:42.466Z,10.60
2024-04-12T09:11:12.239Z,8.40
2024-04-12T09:13:42.010Z,10.80
2024-04-12T09:16:11.064Z,13.40
2024-04-12T09:18:47.240Z,11.30
2024-04-12T09:21:25.550Z,9.60
2024-04-12T09:24:10.199Z,11.10
2024-04-12T09:26:55.869Z,9.70
2024-04-12T09:29:50.633Z,12.70
2024-04-12T09:32:37.002Z,8.60
2024-04-12T09:35:13.032Z,8.80
2024-04-12T09:37:44.741Z,10.90
2024-04-12T09:40:15.126Z,14.90
2024-04-12T09:42:45.659Z,10.60
2024-04-12T09:45:23.797Z,9.80
2024-04-12T09:50:59.932Z,9.00
2024-04-12T09:53:46.811Z,6.40
2024-04-12T09:56:34.323Z,12.10
2024-04-12T09:59:32.031Z,9.30
2024-04-12T10:02:23.103Z,7.00
2024-04-12T10:05:14.549Z,9.80
2024-04-12T10:08:08.465Z,7.70
2024-04-12T10:11:03.644Z,8.10
2024-04-12T10:16:40.055Z,9.50
2024-04-12T10:19:30.265Z,7.10
2024-04-12T10:22:31.923Z,9.70
2024-04-12T10:25:24.132Z,7.00
2024-04-12T10:28:37.218Z,7.50
2024-04-12T10:31:31.899Z,5.50
2024-04-12T10:34:29.145Z,15.20
2024-04-12T10:37:18.290Z,8.90
2024-04-12T10:39:51.383Z,7.00
2024-04-12T10:42:27.307Z,6.50
2024-04-12T10:45:01.068Z,7.40
2024-04-12T10:47:37.814Z,7.90
2024-04-12T10:50:06.728Z,10.40
2024-04-12T10:52:35.690Z,8.10
2024-04-12T10:55:12.436Z,8.70
2024-04-12T10:57:49.300Z,6.80
2024-04-12T11:00:28.570Z,9.50
2024-04-12T11:03:07.222Z,9.60
2024-04-12T11:05:38.633Z,8.00
2024-04-12T11:08:17.172Z,8.80
2024-04-12T11:11:16.440Z,9.30
2024-04-12T11:13:47.870Z,6.70
2024-04-12T11:16:34.921Z,12.00
2024-04-12T11:19:32.621Z,12.70
2024-04-12T11:22:22.149Z,6.80
2024-04-12T11:25:08.824Z,10.40
2024-04-12T11:27:56.675Z,8.70
2024-04-12T11:30:43.902Z,9.90
2024-04-12T11:33:21.695Z,7.70
2024-04-12T11:35:55.036Z,9.70
2024-04-12T11:38:22.992Z,10.60
2024-04-12T11:40:56.466Z,11.20
2024-04-12T11:43:26.609Z,6.10
2024-04-12T11:45:54.322Z,6.60
2024-04-12T11:48:29.479Z,12.90
2024-04-12T11:51:03.263Z,7.20
2024-04-12T11:53:38.418Z,7.10
2024-04-12T11:56:06.006Z,10.70
2024-04-12T11:58:34.626Z,6.10
2024-04-12T12:01:06.484Z,7.30
2024-04-12T12:03:34.217Z,4.90
2024-04-12T12:06:06.866Z,9.30
2024-04-12T12:08:41.059Z,8.70
2024-04-12T12:11:12.982Z,15.50
2024-04-12T12:13:43.544Z,9.30
2024-04-12T12:16:16.323Z,8.60
2024-04-12T12:18:46.467Z,10.10
2024-04-12T12:21:15.910Z,8.10
2024-04-12T12:23:44.082Z,8.20
2024-04-12T12:26:15.321Z,5.30
2024-04-12T12:28:43.716Z,7.10
2024-04-12T12:31:13.860Z,7.90
2024-04-12T12:33:46.618Z,8.60
2024-04-12T12:36:17.967Z,8.20
2024-04-12T12:38:46.681Z,11.00
2024-04-12T12:41:17.364Z,7.70
2024-04-12T12:43:44.982Z,6.40
2024-04-12T12:46:14.321Z,11.50
2024-04-12T12:48:42.634Z,8.30
2024-04-12T12:51:10.948Z,16.20
2024-04-12T12:53:40.272Z,7.70
2024-04-12T12:56:07.821Z,9.40
2024-04-12T12:58:38.435Z,9.90
2024-04-12T13:01:08.058Z,8.30
2024-04-12T13:03:37.506Z,7.50
2024-04-12T13:06:07.039Z,8.00
2024-04-12T13:08:41.248Z,10.40
2024-04-12T13:11:09.649Z,7.70
2024-04-12T13:13:41.966Z,6.40
2024-04-12T13:16:12.280Z,4.20
2024-04-12T13:18:45.123Z,8.10
2024-04-12T13:21:14.873Z,9.10
2024-04-12T13:23:43.832Z,11.40
2024-04-12T13:26:23.487Z,5.70
2024-04-12T13:28:54.428Z,9.20
2024-04-12T13:31:34.579Z,7.80
2024-04-12T13:34:02.398Z,12.40
2024-04-12T13:36:32.513Z,8.80
2024-04-12T13:39:00.407Z,6.50
2024-04-12T13:41:34.561Z,8.00
2024-04-12T13:44:08.909Z,6.10
2024-04-12T13:46:54.846Z,6.10
2024-04-12T13:49:42.679Z,9.70
2024-04-12T13:52:11.028Z,5.80
2024-04-12T13:54:39.482Z,6.80
2024-04-12T13:57:10.973Z,7.40
2024-04-12T13:59:44.783Z,8.50
2024-04-12T14:04:39.531Z,5.30
2024-04-12T14:07:09.956Z,7.10
2024-04-12T14:09:37.636Z,8.50
2024-04-12T14:12:05.434Z,8.10
2024-04-12T14:14:32.659Z,4.00
2024-04-12T14:17:00.270Z,7.50
2024-04-12T14:19:27.929Z,5.90
2024-04-12T14:21:57.724Z,5.70
2024-04-12T14:24:44.122Z,5.90
2024-04-12T14:27:13.365Z,6.20
2024-04-12T14:29:41.665Z,5.80
2024-04-12T14:32:12.109Z,9.20
2024-04-12T14:34:43.533Z,4.50
2024-04-12T14:37:14.413Z,7.00
2024-04-12T14:39:43.262Z,8.20
2024-04-12T14:42:16.713Z,7.50
2024-04-12T14:44:44.515Z,7.50
2024-04-12T14:47:12.479Z,10.00
2024-04-12T14:49:42.274Z,6.50
2024-04-12T14:52:11.906Z,4.50
2024-04-12T14:54:40.222Z,5.20
2024-04-12T14:57:08.204Z,7.70
2024-04-12T14:59:37.204Z,4.40
2024-04-12T15:02:06.435Z,8.60
2024-04-12T15:04:53.042Z,6.20
2024-04-12T15:07:39.722Z,5.90
2024-04-12T15:10:26.663Z,8.60
2024-04-12T15:13:12.272Z,3.50
2024-04-12T15:15:59.144Z,7.80
2024-04-12T15:18:47.512Z,11.30
2024-04-12T15:21:33.203Z,8.00
2024-04-12T15:24:19.950Z,6.50
2024-04-12T15:27:06.609Z,9.40
2024-04-12T15:29:53.195Z,6.10
2024-04-12T15:32:40.210Z,7.20
2024-04-12T15:35:26.501Z,4.60
2024-04-12T15:38:11.867Z,9.30
2024-04-12T15:40:58.423Z,6.30
2024-04-12T15:43:44.458Z,7.10
2024-04-12T15:46:30.453Z,4.80
2024-04-12T15:48:58.925Z,8.30
2024-04-12T15:51:30.277Z,5.90
2024-04-12T15:54:01.500Z,7.70
2024-04-12T15:56:29.258Z,5.80
2024-04-12T15:59:15.786Z,6.00
2024-04-12T16:02:01.394Z,9.00
2024-04-12T16:04:46.933Z,8.00
2024-04-12T16:07:33.094Z,8.00
2024-04-12T16:10:19.992Z,7.10
2024-04-12T16:12:47.550Z,5.80
2024-04-12T16:15:14.735Z,8.90
2024-04-12T16:20:17.014Z,8.40
2024-04-12T16:22:44.210Z,8.20
2024-04-12T16:25:14.058Z,11.40
2024-04-12T16:27:42.129Z,8.70
2024-04-12T16:30:10.016Z,6.60
2024-04-12T16:32:37.871Z,6.10
2024-04-12T16:35:06.755Z,7.20
2024-04-12T16:37:34.429Z,7.50
2024-04-12T16:40:02.826Z,6.50
2024-04-12T16:42:30.812Z,7.10
2024-04-12T16:44:58.609Z,8.20
2024-04-12T16:47:25.788Z,5.90
2024-04-12T16:49:53.885Z,8.80
2024-04-12T16:52:21.499Z,8.40
2024-04-12T16:54:48.897Z,10.10
2024-04-12T16:57:17.198Z,12.30
2024-04-12T16:59:44.961Z,4.90
2024-04-12T17:02:14.570Z,5.30
2024-04-12T17:04:44.800Z,7.50
2024-04-12T17:07:13.835Z,7.90
2024-04-12T17:09:41.977Z,9.70
2024-04-12T17:12:09.591Z,9.80
2024-04-12T17:14:37.369Z,7.40
2024-04-12T17:17:06.851Z,7.90
2024-04-12T17:19:34.792Z,9.50
2024-04-12T17:22:02.576Z,7.90
2024-04-12T17:24:30.429Z,10.10
2024-04-12T17:26:58.463Z,11.80
2024-04-12T17:29:30.469Z,7.40
2024-04-12T17:31:59.449Z,13.70
2024-04-12T17:34:28.359Z,10.50
2024-04-12T17:36:57.696Z,9.80
2024-04-12T17:39:25.391Z,11.60
2024-04-12T17:41:54.763Z,7.10
2024-04-12T17:44:23.821Z,12.30
2024-04-12T17:46:52.550Z,7.70
2024-04-12T17:49:20.425Z,7.00
2024-04-12T17:51:49.167Z,9.00
2024-04-12T17:54:16.816Z,13.60
2024-04-12T17:56:44.920Z,8.90
2024-04-12T17:59:12.905Z,10.10
2024-04-12T18:01:42.679Z,12.30
2024-04-12T18:04:12.186Z,18.60
2024-04-12T18:06:45.525Z,14.40
2024-04-12T18:09:13.689Z,18.20
2024-04-12T18:11:42.555Z,13.40
2024-04-12T18:14:11.906Z,10.60
2024-04-12T18:16:42.957Z,21.20
2024-04-12T18:19:11.645Z,16.00
2024-04-12T18:21:39.333Z,12.90
2024-04-12T18:24:07.866Z,14.30
2024-04-12T18:26:36.567Z,12.90
2024-04-12T18:29:04.680Z,22.60
2024-04-12T18:31:33.945Z,18.90
2024-04-12T18:34:07.258Z,9.20
2024-04-12T18:36:40.106Z,8.20
2024-04-12T18:39:28.199Z,7.90
2024-04-12T18:42:13.874Z,9.50
2024-04-12T18:45:00.511Z,7.20
2024-04-12T18:47:28.842Z,9.30
2024-04-12T18:49:56.346Z,12.40
2024-04-12T18:52:25.213Z,12.40
2024-04-12T18:54:53.170Z,12.70
2024-04-12T18:59:48.427Z,10.20
2024-04-12T19:02:16.313Z,9.70
2024-04-12T19:04:45.728Z,12.20
2024-04-12T19:07:13.776Z,11.10
2024-04-12T19:09:41.143Z,7.90
2024-04-12T19:12:10.278Z,6.80
2024-04-12T19:14:39.939Z,10.60
2024-04-12T19:17:08.840Z,7.10
2024-04-12T19:19:37.379Z,12.30
2024-04-12T19:22:07.963Z,9.80
2024-04-12T19:24:35.729Z,9.60
2024-04-12T19:29:30.815Z,10.60
2024-04-12T19:34:26.180Z,9.40
2024-04-12T19:36:53.749Z,10.70
2024-04-12T19:39:20.998Z,6.80
2024-04-12T19:41:48.613Z,9.20
2024-04-12T19:44:17.877Z,8.90
2024-04-12T19:46:45.149Z,15.00
2024-04-12T19:49:12.489Z,9.20
2024-04-12T19:51:40.367Z,10.90
2024-04-12T19:54:08.036Z,8.60
2024-04-12T19:56:35.636Z,9.10
2024-04-12T19:59:04.022Z,10.50
2024-04-12T20:01:31.552Z,10.90
2024-04-12T20:03:59.767Z,8.40
2024-04-12T20:06:27.490Z,11.90
2024-04-12T20:08:55.622Z,9.10
2024-04-12T20:13:51.458Z,10.10
2024-04-12T20:16:21.149Z,14.10
2024-04-12T20:18:49.375Z,10.30
2024-04-12T20:21:17.080Z,10.10
2024-04-12T20:23:44.951Z,12.70
2024-04-12T20:28:48.244Z,11.10
2024-04-12T20:31:37.837Z,13.20
2024-04-12T20:34:06.595Z,16.50
2024-04-12T20:36:41.919Z,14.00
2024-04-12T20:39:19.463Z,14.80
2024-04-12T20:41:57.050Z,14.10
2024-04-12T20:44:26.648Z,11.90
2024-04-12T20:46:55.391Z,10.10
2024-04-12T20:49:25.027Z,10.10
2024-04-12T20:51:53.466Z,11.10
2024-04-12T20:54:20.784Z,8.80
2024-04-12T20:56:49.791Z,9.60
2024-04-12T20:59:19.853Z,9.20
2024-04-12T21:01:50.332Z,7.10
2024-04-12T21:04:19.646Z,8.80
2024-04-12T21:06:49.184Z,8.70
2024-04-12T21:09:17.558Z,13.60
2024-04-12T21:11:45.802Z,12.10
2024-04-12T21:14:14.104Z,11.50
2024-04-12T21:16:43.675Z,10.60
2024-04-12T21:19:12.456Z,9.30
2024-04-12T21:21:40.462Z,9.50
2024-04-12T21:24:10.169Z,12.90
2024-04-12T21:26:38.090Z,11.90
2024-04-12T21:29:05.516Z,8.90
2024-04-12T21:34:01.082Z,13.70
2024-04-12T21:36:29.472Z,12.40
2024-04-12T21:39:00.368Z,12.10
2024-04-12T21:41:27.930Z,11.70
2024-04-12T21:46:24.897Z,16.50
2024-04-12T21:48:54.624Z,12.40
2024-04-12T21:51:24.245Z,12.10
2024-04-12T21:53:52.599Z,10.50
2024-04-12T21:56:20.670Z,10.90
2024-04-12T21:58:52.497Z,11.00
2024-04-12T22:01:21.840Z,10.60
2024-04-12T22:03:49.593Z,10.50
2024-04-12T22:06:17.471Z,12.30
2024-04-12T22:08:45.386Z,9.10
2024-04-12T22:11:15.012Z,9.60
2024-04-12T22:13:44.245Z,10.50
2024-04-12T22:16:14.221Z,10.00
2024-04-12T22:18:42.420Z,8.60
2024-04-12T22:21:15.642Z,9.80
2024-04-12T22:23:45.498Z,10.60
2024-04-12T22:26:30.835Z,8.40
2024-04-12T22:28:58.718Z,12.10
2024-04-12T22:31:28.524Z,11.80
2024-04-12T22:33:55.804Z,13.40
2024-04-12T22:36:24.006Z,11.20
2024-04-12T22:38:52.279Z,11.70
2024-04-12T22:41:21.285Z,11.20
2024-04-12T22:43:49.240Z,12.10
2024-04-12T22:46:16.963Z,12.50
2024-04-12T22:51:23.541Z,10.10
2024-04-12T22:56:24.347Z,12.80
2024-04-12T22:58:55.997Z,9.70
2024-04-12T23:01:28.499Z,12.40
2024-04-12T23:03:57.285Z,10.00
2024-04-12T23:06:25.891Z,12.60
2024-04-12T23:08:53.898Z,12.10
2024-04-12T23:11:22.941Z,13.60
2024-04-12T23:13:52.410Z,10.40
2024-04-12T23:16:21.354Z,13.80
2024-04-12T23:18:52.954Z,9.90
2024-04-12T23:21:21.734Z,11.80
2024-04-12T23:23:49.646Z,14.80
2024-04-12T23:26:17.722Z,9.60
2024-04-12T23:28:46.908Z,9.00
2024-04-12T23:31:14.169Z,10.10
2024-04-12T23:33:42.877Z,12.10
2024-04-12T23:36:09.984Z,13.10
2024-04-12T23:38:37.873Z,10.00
2024-04-12T23:41:05.306Z,12.40
2024-04-12T23:43:33.220Z,10.00
2024-04-12T23:46:06.491Z,12.10
2024-04-12T23:48:34.034Z,8.60
2024-04-12T23:51:01.815Z,11.60
2024-04-12T23:53:29.697Z,11.90
2024-04-12T23:55:59.760Z,12.80
2024-04-12T23:58:28.398Z,10.10
